AUA7 LOWW-VTBS
Flight info
| Callsign | AUA7 |
|---|---|
| Flight time | N/A |
| Altitude | 35000 |
| Route | ASPI2C/29 ADAMA DCT VEDER DCT ALAMU DCT EPARI DCT BUDOP DCT UDROS UN743 GAKSU UT310 SIN UN644 KARDE/N0472F370 UL851 TBN UM11 REBLO M11 LUSAL M747 SULEL N449 DUKAN B449 RANAH L750 RIKAD/N0464F390 L750 MERUN G452 LKN R460 BBN P646 JJS Z12 DOPID P646 PTN N895 BETNO G463 TARED DCT WILLA WILLA1C |
| Aircraft | A343/H-SDE2E3FGHIJ4J5M1RWXY/LB1D1 |
Departure
| Time | 2026-04-24 21:45 |
|---|---|
| Airport | Vienna International Airport (LOWW) |
Arrival
| Time | N/A |
|---|---|
| Airport | Suvarnabhumi Airport (VTBS) |
| Time | Latitude | Longitude | Altitude | Speed | Heading |
|---|---|---|---|---|---|
| 2026-04-24 21:23 | 48.11780 | 16.56028 | 613 ft | 0 kts | 38° |
| 2026-04-24 21:27 | 48.11780 | 16.56027 | 613 ft | 0 kts | 38° |
| 2026-04-24 21:35 | 48.11778 | 16.56025 | 613 ft | 2 kts | 38° |
| 2026-04-24 21:35 | 48.11764 | 16.56007 | 628 ft | 3 kts | 48° |
| 2026-04-24 21:35 | 48.11751 | 16.55983 | 628 ft | 3 kts | 60° |
| 2026-04-24 21:35 | 48.11743 | 16.55956 | 628 ft | 3 kts | 77° |
| 2026-04-24 21:36 | 48.11741 | 16.55928 | 628 ft | 3 kts | 104° |
| 2026-04-24 21:36 | 48.11744 | 16.55916 | 628 ft | 0 kts | 116° |
| 2026-04-24 21:39 | 48.11737 | 16.55935 | 625 ft | 10 kts | 116° |
| 2026-04-24 21:40 | 48.11700 | 16.56050 | 623 ft | 12 kts | 116° |
| 2026-04-24 21:40 | 48.11663 | 16.56162 | 624 ft | 12 kts | 116° |
| 2026-04-24 21:40 | 48.11610 | 16.56322 | 626 ft | 22 kts | 116° |
| 2026-04-24 21:40 | 48.11531 | 16.56565 | 621 ft | 30 kts | 116° |
| 2026-04-24 21:41 | 48.11435 | 16.56863 | 628 ft | 32 kts | 116° |
| 2026-04-24 21:41 | 48.11342 | 16.57152 | 628 ft | 30 kts | 115° |
| 2026-04-24 21:41 | 48.11251 | 16.57425 | 628 ft | 28 kts | 116° |
| 2026-04-24 21:41 | 48.11179 | 16.57599 | 623 ft | 12 kts | 153° |
| 2026-04-24 21:42 | 48.11114 | 16.57563 | 624 ft | 10 kts | 222° |
| 2026-04-24 21:42 | 48.11070 | 16.57519 | 621 ft | 0 kts | 206° |
| 2026-04-24 21:43 | 48.11070 | 16.57518 | 621 ft | 1 kts | 206° |
| 2026-04-24 21:43 | 48.11039 | 16.57497 | 622 ft | 9 kts | 203° |
| 2026-04-24 21:43 | 48.10966 | 16.57430 | 628 ft | 11 kts | 233° |
| 2026-04-24 21:44 | 48.10966 | 16.57376 | 620 ft | 5 kts | 285° |
| 2026-04-24 21:44 | 48.11012 | 16.57231 | 626 ft | 34 kts | 296° |
| 2026-04-24 21:44 | 48.11193 | 16.56677 | 626 ft | 83 kts | 296° |
| 2026-04-24 21:44 | 48.11510 | 16.55704 | 620 ft | 124 kts | 296° |
| 2026-04-24 21:45 | 48.11940 | 16.54386 | 624 ft | 157 kts | 296° |
| 2026-04-24 21:45 | 48.12455 | 16.52870 | 914 ft | 162 kts | 303° |
| 2026-04-24 21:45 | 48.13065 | 16.51423 | 1250 ft | 170 kts | 305° |
| 2026-04-24 21:45 | 48.13349 | 16.49695 | 1656 ft | 174 kts | 275° |
| 2026-04-24 21:46 | 48.13227 | 16.47821 | 1964 ft | 193 kts | 256° |
| 2026-04-24 21:46 | 48.12320 | 16.46193 | 2144 ft | 222 kts | 211° |
| 2026-04-24 21:46 | 48.10721 | 16.45752 | 2293 ft | 251 kts | 174° |
| 2026-04-24 21:46 | 48.08948 | 16.46337 | 2742 ft | 267 kts | 164° |